Coyote, California
Current Conditions -  °F | °C
As of 12:48 PM on Tuesday 21 Oct 2014 (Local Time) from KRHV Reporting Station
Clear Clear  
Wind Chill: 72°   Ceiling: Unl
Heat Index: 72°   Visibility: 10mi
Dew Point: 50°   Wind: 9mph
Humidity: 46%   Direction: 270°W
Pressure: 30.09"   Gusts: NA
Location:  37.22°N, 121.74°W
Report Text: KRHV 211948Z 27008KT 10SM SKC 22/10 A3009
Loading
Personal Weather Stations






























Interactive Weather Map
Tropical Storm Tracking
New forecast layout! Learn more

10-Day Weather Forecast

Advertisements
Track Severe Weather on mobile